createdAt,value
2023-02-18T00:01:18.662Z,31.00
2023-02-18T00:03:45.824Z,29.90
2023-02-18T00:06:24.520Z,28.65
2023-02-18T00:08:52.132Z,31.55
2023-02-18T00:11:20.334Z,36.03
2023-02-18T00:13:54.298Z,37.08
2023-02-18T00:16:21.453Z,40.83
2023-02-18T00:18:48.469Z,30.10
2023-02-18T00:21:15.449Z,22.27
2023-02-18T00:23:43.824Z,32.05
2023-02-18T00:26:15.857Z,30.65
2023-02-18T00:28:42.810Z,33.25
2023-02-18T00:31:14.281Z,34.65
2023-02-18T00:33:41.615Z,30.48
2023-02-18T00:36:13.777Z,33.47
2023-02-18T00:38:43.709Z,25.20
2023-02-18T00:41:11.230Z,39.42
2023-02-18T00:43:37.928Z,47.60
2023-02-18T00:46:04.722Z,43.58
2023-02-18T00:48:32.469Z,40.70
2023-02-18T00:51:00.753Z,47.95
2023-02-18T00:53:28.975Z,44.40
2023-02-18T00:55:57.202Z,51.00
2023-02-18T00:58:24.399Z,53.72
2023-02-18T01:00:51.556Z,55.67
2023-02-18T01:03:18.414Z,67.18
2023-02-18T01:05:45.400Z,73.53
2023-02-18T01:08:12.183Z,74.20
2023-02-18T01:10:42.460Z,71.13
2023-02-18T01:13:09.268Z,68.43
2023-02-18T01:15:35.900Z,74.63
2023-02-18T01:18:03.057Z,61.60
2023-02-18T01:20:29.833Z,67.68
2023-02-18T01:22:56.461Z,59.92
2023-02-18T01:25:23.155Z,66.05
2023-02-18T01:27:49.774Z,49.78
2023-02-18T01:30:18.250Z,62.63
2023-02-18T01:32:45.448Z,57.83
2023-02-18T01:35:14.465Z,56.20
2023-02-18T01:37:41.426Z,56.58
2023-02-18T01:40:09.569Z,57.85
2023-02-18T01:42:36.205Z,56.88
2023-02-18T01:45:30.584Z,63.58
2023-02-18T01:47:57.512Z,50.40
2023-02-18T01:50:24.352Z,44.78
2023-02-18T01:52:51.095Z,55.30
2023-02-18T01:55:17.803Z,47.15
2023-02-18T01:57:44.471Z,50.88
2023-02-18T02:00:14.967Z,53.60
2023-02-18T02:02:44.424Z,45.53
2023-02-18T02:05:11.043Z,52.83
2023-02-18T02:07:37.738Z,51.42
2023-02-18T02:10:04.959Z,48.30
2023-02-18T02:13:13.588Z,49.33
2023-02-18T02:15:47.086Z,44.72
2023-02-18T02:18:28.948Z,46.83
2023-02-18T02:21:13.956Z,46.88
2023-02-18T02:23:58.829Z,48.30
2023-02-18T02:26:54.049Z,53.15
2023-02-18T02:29:39.465Z,48.40
2023-02-18T02:32:30.832Z,38.42
2023-02-18T02:35:06.749Z,44.00
2023-02-18T02:37:33.289Z,45.38
2023-02-18T02:40:27.801Z,39.67
2023-02-18T02:43:23.581Z,47.35
2023-02-18T02:46:13.058Z,38.85
2023-02-18T02:48:54.978Z,35.92
2023-02-18T02:51:48.063Z,40.97
2023-02-18T02:54:21.800Z,41.85
2023-02-18T02:56:49.623Z,38.92
2023-02-18T02:59:24.762Z,42.15
2023-02-18T03:01:52.526Z,42.63
2023-02-18T03:04:44.122Z,43.90
2023-02-18T03:07:39.625Z,40.75
2023-02-18T03:10:44.269Z,41.58
2023-02-18T03:13:24.129Z,40.47
2023-02-18T03:16:13.772Z,37.80
2023-02-18T03:18:45.090Z,40.80
2023-02-18T03:21:25.788Z,39.83
2023-02-18T03:24:07.212Z,41.63
2023-02-18T03:26:36.873Z,44.10
2023-02-18T03:29:05.967Z,39.40
2023-02-18T03:31:34.877Z,46.75
2023-02-18T03:34:05.721Z,47.30
2023-02-18T03:36:33.154Z,52.30
2023-02-18T03:39:03.723Z,47.40
2023-02-18T03:41:30.707Z,42.63
2023-02-18T03:44:04.251Z,45.05
2023-02-18T03:46:32.106Z,40.35
2023-02-18T03:48:59.165Z,46.25
2023-02-18T03:51:25.790Z,44.42
2023-02-18T03:53:52.502Z,34.90
2023-02-18T03:56:19.891Z,43.15
2023-02-18T03:58:46.894Z,38.83
2023-02-18T04:01:14.374Z,35.15
2023-02-18T04:03:41.043Z,38.47
2023-02-18T04:06:08.346Z,37.50
2023-02-18T04:08:35.269Z,32.20
2023-02-18T04:11:03.138Z,32.33
2023-02-18T04:13:29.778Z,29.20
2023-02-18T04:15:57.384Z,28.08
2023-02-18T04:18:24.096Z,28.58
2023-02-18T04:20:50.788Z,29.10
2023-02-18T04:23:17.521Z,26.58
2023-02-18T04:25:44.253Z,27.85
2023-02-18T04:28:13.280Z,27.55
2023-02-18T04:30:40.242Z,27.85
2023-02-18T04:33:07.184Z,24.75
2023-02-18T04:35:34.183Z,26.13
2023-02-18T04:38:00.769Z,27.95
2023-02-18T04:40:30.514Z,31.27
2023-02-18T04:42:58.184Z,31.00
2023-02-18T04:45:25.673Z,24.73
2023-02-18T04:47:52.364Z,27.55
2023-02-18T04:50:19.498Z,24.80
2023-02-18T04:52:46.207Z,23.52
2023-02-18T04:55:12.904Z,25.73
2023-02-18T04:57:39.635Z,27.90
2023-02-18T05:00:08.336Z,20.00
2023-02-18T05:02:35.052Z,22.40
2023-02-18T05:05:01.730Z,23.25
2023-02-18T05:07:28.367Z,24.83
2023-02-18T05:09:55.066Z,17.75
2023-02-18T05:12:21.660Z,22.25
2023-02-18T05:14:48.281Z,19.52
2023-02-18T05:17:14.900Z,21.52
2023-02-18T05:19:41.618Z,20.48
2023-02-18T05:22:08.213Z,15.13
2023-02-18T05:24:34.856Z,15.00
2023-02-18T05:27:01.572Z,15.63
2023-02-18T05:29:28.273Z,16.92
2023-02-18T05:31:55.062Z,12.07
2023-02-18T05:34:21.726Z,9.80
2023-02-18T05:36:48.475Z,13.90
2023-02-18T05:39:15.082Z,11.35
2023-02-18T05:41:41.809Z,8.98
2023-02-18T05:44:27.154Z,8.70
2023-02-18T05:46:53.732Z,7.95
2023-02-18T05:49:21.325Z,7.70
2023-02-18T05:51:47.938Z,3.85
2023-02-18T05:54:14.589Z,6.55
2023-02-18T05:56:41.299Z,6.15
2023-02-18T05:59:07.945Z,7.38
2023-02-18T06:01:34.805Z,2.95
2023-02-18T06:04:01.492Z,4.35
2023-02-18T06:06:28.138Z,2.75
2023-02-18T06:08:54.790Z,2.70
2023-02-18T06:11:21.446Z,4.22
2023-02-18T06:13:48.042Z,2.97
2023-02-18T06:16:14.677Z,2.92
2023-02-18T06:18:41.344Z,3.30
2023-02-18T06:21:08.073Z,2.25
2023-02-18T06:23:34.697Z,3.00
2023-02-18T06:26:01.331Z,3.17
2023-02-18T06:28:28.064Z,3.08
2023-02-18T06:30:54.699Z,2.85
2023-02-18T06:33:21.346Z,8.55
2023-02-18T06:36:17.376Z,2.58
2023-02-18T06:38:45.456Z,5.10
2023-02-18T06:41:13.265Z,5.60
2023-02-18T06:43:40.432Z,6.05
2023-02-18T06:46:07.792Z,6.43
2023-02-18T06:48:34.718Z,7.25
2023-02-18T06:51:01.429Z,6.40
2023-02-18T06:53:28.096Z,8.00
2023-02-18T06:55:54.826Z,6.50
2023-02-18T06:58:23.307Z,7.53
2023-02-18T07:00:50.184Z,8.15
2023-02-18T07:03:16.975Z,8.30
2023-02-18T07:05:43.657Z,7.47
2023-02-18T07:08:10.434Z,6.65
2023-02-18T07:10:37.104Z,8.27
2023-02-18T07:13:04.106Z,6.22
2023-02-18T07:15:30.719Z,5.50
2023-02-18T07:17:57.493Z,5.28
2023-02-18T07:20:24.880Z,4.18
2023-02-18T07:22:52.183Z,4.07
2023-02-18T07:25:19.923Z,3.97
2023-02-18T07:27:47.610Z,5.35
2023-02-18T07:30:14.791Z,3.95
2023-02-18T07:32:41.437Z,5.13
2023-02-18T07:35:08.242Z,3.63
2023-02-18T07:37:34.847Z,5.85
2023-02-18T07:40:01.593Z,4.80
2023-02-18T07:42:28.272Z,6.97
2023-02-18T07:44:54.908Z,5.50
2023-02-18T07:47:21.545Z,6.85
2023-02-18T07:49:48.254Z,5.72
2023-02-18T07:52:15.811Z,8.77
2023-02-18T07:54:42.769Z,6.30
2023-02-18T07:57:09.598Z,10.38
2023-02-18T07:59:36.313Z,11.55
2023-02-18T08:02:03.463Z,8.50
2023-02-18T08:04:30.176Z,6.70
2023-02-18T08:06:56.870Z,4.22
2023-02-18T08:09:23.493Z,7.25
2023-02-18T08:11:50.280Z,7.80
2023-02-18T08:14:16.972Z,4.50
2023-02-18T08:16:43.666Z,5.43
2023-02-18T08:19:10.659Z,7.10
2023-02-18T08:21:37.296Z,5.43
2023-02-18T08:24:04.185Z,6.38
2023-02-18T08:26:30.866Z,6.65
2023-02-18T08:28:57.597Z,8.15
2023-02-18T08:31:27.386Z,3.45
2023-02-18T08:33:55.626Z,4.13
2023-02-18T08:36:22.684Z,4.03
2023-02-18T08:38:49.561Z,4.45
2023-02-18T08:41:16.469Z,5.25
2023-02-18T08:43:43.272Z,5.70
2023-02-18T08:46:16.022Z,5.97
2023-02-18T08:48:51.616Z,3.75
2023-02-18T08:51:21.320Z,6.15
2023-02-18T08:53:48.106Z,6.25
2023-02-18T08:56:15.205Z,7.80
2023-02-18T08:58:42.296Z,6.72
2023-02-18T09:01:11.074Z,8.40
2023-02-18T09:03:38.329Z,6.68
2023-02-18T09:06:05.446Z,7.72
2023-02-18T09:08:32.422Z,7.93
2023-02-18T09:11:01.356Z,6.05
2023-02-18T09:13:28.348Z,6.75
2023-02-18T09:16:08.892Z,4.95
2023-02-18T09:18:36.023Z,6.32
2023-02-18T09:21:04.014Z,5.38
2023-02-18T09:23:31.816Z,5.75
2023-02-18T09:25:59.694Z,11.23
2023-02-18T09:28:26.728Z,8.20
2023-02-18T09:30:53.902Z,9.23
2023-02-18T09:33:20.672Z,10.15
2023-02-18T09:35:47.743Z,7.45
2023-02-18T09:38:17.374Z,8.85
2023-02-18T09:40:51.630Z,12.57
2023-02-18T09:43:35.021Z,12.55
2023-02-18T09:46:03.575Z,18.58
2023-02-18T09:48:33.308Z,18.63
2023-02-18T09:51:00.293Z,14.15
2023-02-18T09:53:27.479Z,11.63
2023-02-18T09:55:56.620Z,11.95
2023-02-18T09:58:31.446Z,13.60
2023-02-18T10:01:16.005Z,12.85
2023-02-18T10:03:44.318Z,11.77
2023-02-18T10:06:22.113Z,11.45
2023-02-18T10:08:51.097Z,8.98
2023-02-18T10:11:29.649Z,12.70
2023-02-18T10:13:57.593Z,16.00
2023-02-18T10:16:25.920Z,14.02
2023-02-18T10:18:55.937Z,8.50
2023-02-18T10:21:26.037Z,5.63
2023-02-18T10:24:01.825Z,9.93
2023-02-18T10:26:30.720Z,11.70
2023-02-18T10:28:57.908Z,14.30
2023-02-18T10:31:37.050Z,15.10
2023-02-18T10:34:25.120Z,21.80
2023-02-18T10:36:56.045Z,9.32
2023-02-18T10:39:32.878Z,21.33
2023-02-18T10:42:21.295Z,14.27
2023-02-18T10:44:59.369Z,13.57
2023-02-18T10:47:44.514Z,13.15
2023-02-18T10:50:34.345Z,16.27
2023-02-18T10:53:08.394Z,15.55
2023-02-18T10:55:40.790Z,11.65
2023-02-18T10:58:26.409Z,15.80
2023-02-18T11:00:53.322Z,13.20
2023-02-18T11:03:25.968Z,13.00
2023-02-18T11:05:55.909Z,11.43
2023-02-18T11:08:25.979Z,17.02
2023-02-18T11:10:53.477Z,16.83
2023-02-18T11:13:28.432Z,18.45
2023-02-18T11:16:04.278Z,11.05
2023-02-18T11:18:43.955Z,12.57
2023-02-18T11:21:13.524Z,5.82
2023-02-18T11:23:51.638Z,16.42
2023-02-18T11:26:25.393Z,10.60
2023-02-18T11:28:58.480Z,13.73
2023-02-18T11:31:27.468Z,16.13
2023-02-18T11:33:57.597Z,10.00
2023-02-18T11:36:30.567Z,11.35
2023-02-18T11:39:04.593Z,10.38
2023-02-18T11:41:38.311Z,14.45
2023-02-18T11:44:07.447Z,6.85
2023-02-18T11:46:34.463Z,13.60
2023-02-18T11:49:12.338Z,12.30
2023-02-18T11:51:40.353Z,9.70
2023-02-18T11:54:29.996Z,9.73
2023-02-18T11:57:11.214Z,12.13
2023-02-18T11:59:39.806Z,11.27
2023-02-18T12:02:09.440Z,9.05
2023-02-18T12:04:43.848Z,16.70
2023-02-18T12:07:17.605Z,13.10
2023-02-18T12:09:53.352Z,8.25
2023-02-18T12:12:27.961Z,13.18
2023-02-18T12:14:55.168Z,11.32
2023-02-18T12:17:46.720Z,8.15
2023-02-18T12:20:38.656Z,10.25
2023-02-18T12:23:26.633Z,10.35
2023-02-18T12:25:59.228Z,9.90
2023-02-18T12:28:48.346Z,8.90
2023-02-18T12:31:52.061Z,6.53
2023-02-18T12:34:37.047Z,10.05
2023-02-18T12:37:18.933Z,6.97
2023-02-18T12:40:00.711Z,6.18
2023-02-18T12:42:49.603Z,12.70
2023-02-18T12:45:40.587Z,11.68
2023-02-18T12:48:16.136Z,10.43
2023-02-18T12:51:09.615Z,15.13
2023-02-18T12:53:59.241Z,12.02
2023-02-18T12:56:39.415Z,9.35
2023-02-18T12:59:05.988Z,13.15
2023-02-18T13:01:36.718Z,15.30
2023-02-18T13:04:22.015Z,13.73
2023-02-18T13:07:10.431Z,16.83
2023-02-18T13:10:12.323Z,18.30
2023-02-18T13:13:04.423Z,13.70
2023-02-18T13:15:39.326Z,12.13
2023-02-18T13:18:12.344Z,13.48
2023-02-18T13:20:54.409Z,12.13
2023-02-18T13:23:28.491Z,8.77
2023-02-18T13:26:01.121Z,9.20
2023-02-18T13:28:44.905Z,11.65
2023-02-18T13:31:14.619Z,12.05
2023-02-18T13:33:50.422Z,15.95
2023-02-18T13:36:40.066Z,18.05
2023-02-18T13:39:09.680Z,18.70
2023-02-18T13:41:41.702Z,15.68
2023-02-18T13:44:32.031Z,14.90
2023-02-18T13:46:59.404Z,18.90
2023-02-18T13:49:34.618Z,17.88
2023-02-18T13:52:02.409Z,18.40
2023-02-18T13:54:32.959Z,17.08
2023-02-18T13:57:06.546Z,15.40
2023-02-18T13:59:46.352Z,24.40
2023-02-18T14:02:25.687Z,18.02
2023-02-18T14:04:57.294Z,15.48
2023-02-18T14:07:27.094Z,17.77
2023-02-18T14:09:56.028Z,22.40
2023-02-18T14:12:44.649Z,19.60
2023-02-18T14:15:23.665Z,21.52
2023-02-18T14:18:26.952Z,18.48
2023-02-18T14:21:04.821Z,14.55
2023-02-18T14:23:37.805Z,19.23
2023-02-18T14:26:08.940Z,18.90
2023-02-18T14:28:36.169Z,17.50
2023-02-18T14:31:30.154Z,22.30
2023-02-18T14:34:06.571Z,24.50
2023-02-18T14:36:45.525Z,25.00
2023-02-18T14:39:30.956Z,29.38
2023-02-18T14:42:00.360Z,28.45
2023-02-18T14:45:04.544Z,29.30
2023-02-18T14:48:03.753Z,20.95
2023-02-18T14:50:32.296Z,31.30
2023-02-18T14:53:03.262Z,30.45
2023-02-18T14:55:32.853Z,33.10
2023-02-18T14:58:08.526Z,34.88
2023-02-18T15:00:40.371Z,39.67
2023-02-18T15:03:16.496Z,35.85
2023-02-18T15:05:44.216Z,44.33
2023-02-18T15:08:22.267Z,42.30
2023-02-18T15:11:03.676Z,41.85
2023-02-18T15:13:36.820Z,34.72
2023-02-18T15:16:09.005Z,32.97
2023-02-18T15:18:42.363Z,38.20
2023-02-18T15:21:17.955Z,35.47
2023-02-18T15:23:44.625Z,33.15
2023-02-18T15:26:15.754Z,35.45
2023-02-18T15:28:53.989Z,35.15
2023-02-18T15:31:26.882Z,38.47
2023-02-18T15:33:53.653Z,40.35
2023-02-18T15:36:20.329Z,33.50
2023-02-18T15:38:47.036Z,34.95
2023-02-18T15:41:15.775Z,33.00
2023-02-18T15:44:03.221Z,34.38
2023-02-18T15:46:29.994Z,29.45
2023-02-18T15:48:57.099Z,31.02
2023-02-18T15:51:27.985Z,43.35
2023-02-18T15:53:57.199Z,28.50
2023-02-18T15:56:32.000Z,35.17
2023-02-18T15:59:17.430Z,37.42
2023-02-18T16:01:49.574Z,37.55
2023-02-18T16:04:16.403Z,45.13
2023-02-18T16:06:49.925Z,38.50
2023-02-18T16:09:23.107Z,44.10
2023-02-18T16:11:59.638Z,36.13
2023-02-18T16:14:47.250Z,37.75
2023-02-18T16:17:25.292Z,38.05
2023-02-18T16:20:18.743Z,34.17
2023-02-18T16:22:54.488Z,36.67
2023-02-18T16:25:21.082Z,32.10
2023-02-18T16:27:49.290Z,32.85
2023-02-18T16:30:24.996Z,35.42
2023-02-18T16:32:52.128Z,41.92
2023-02-18T16:35:19.394Z,25.35
2023-02-18T16:37:47.931Z,30.05
2023-02-18T16:40:22.464Z,36.10
2023-02-18T16:42:51.604Z,35.13
2023-02-18T16:45:18.906Z,39.80
2023-02-18T16:47:47.360Z,35.55
2023-02-18T16:50:20.733Z,32.08
2023-02-18T16:52:48.483Z,36.67
2023-02-18T16:55:20.491Z,40.15
2023-02-18T16:57:48.352Z,41.63
2023-02-18T17:00:16.483Z,44.05
2023-02-18T17:02:44.993Z,47.10
2023-02-18T17:05:26.817Z,24.92
2023-02-18T17:07:57.432Z,36.95
2023-02-18T17:10:24.132Z,41.78
2023-02-18T17:12:50.753Z,41.85
2023-02-18T17:15:23.290Z,41.22
2023-02-18T17:17:49.949Z,36.35
2023-02-18T17:20:16.720Z,38.30
2023-02-18T17:22:43.472Z,44.20
2023-02-18T17:25:15.327Z,36.28
2023-02-18T17:27:41.964Z,41.70
2023-02-18T17:30:09.302Z,37.22
2023-02-18T17:32:36.188Z,39.50
2023-02-18T17:35:03.011Z,39.78
2023-02-18T17:37:29.682Z,34.05
2023-02-18T17:39:56.474Z,31.30
2023-02-18T17:42:23.323Z,33.63
2023-02-18T17:44:49.974Z,38.03
2023-02-18T17:47:16.994Z,39.67
2023-02-18T17:49:43.764Z,33.60
2023-02-18T17:52:28.801Z,37.03
2023-02-18T17:54:55.443Z,34.13
2023-02-18T17:57:22.072Z,28.80
2023-02-18T17:59:48.703Z,34.15
2023-02-18T18:02:33.381Z,34.70
2023-02-18T18:04:59.989Z,40.47
2023-02-18T18:07:26.645Z,32.85
2023-02-18T18:09:53.389Z,36.47
2023-02-18T18:12:22.728Z,36.13
2023-02-18T18:14:49.413Z,32.03
2023-02-18T18:17:16.214Z,34.30
2023-02-18T18:19:42.937Z,37.00
2023-02-18T18:22:11.465Z,37.72
2023-02-18T18:24:38.136Z,34.70
2023-02-18T18:27:04.911Z,35.72
2023-02-18T18:29:32.003Z,38.40
2023-02-18T18:31:58.752Z,35.17
2023-02-18T18:34:25.475Z,33.08
2023-02-18T18:36:52.146Z,39.42
2023-02-18T18:39:18.816Z,33.80
2023-02-18T18:41:45.497Z,35.10
2023-02-18T18:44:12.740Z,33.63
2023-02-18T18:46:39.365Z,34.97
2023-02-18T18:49:06.024Z,31.60
2023-02-18T18:51:33.216Z,31.85
2023-02-18T18:53:59.962Z,37.70
2023-02-18T18:56:26.549Z,37.70
2023-02-18T18:58:53.228Z,32.33
2023-02-18T19:01:23.149Z,33.97
2023-02-18T19:03:49.935Z,31.50
2023-02-18T19:06:17.220Z,35.75
2023-02-18T19:08:45.388Z,35.53
2023-02-18T19:11:12.832Z,37.17
2023-02-18T19:13:39.821Z,28.83
2023-02-18T19:16:08.919Z,32.85
2023-02-18T19:18:35.567Z,33.22
2023-02-18T19:21:05.270Z,32.13
2023-02-18T19:23:33.908Z,32.13
2023-02-18T19:26:00.643Z,32.03
2023-02-18T19:28:28.032Z,24.45
2023-02-18T19:30:54.739Z,30.25
2023-02-18T19:33:21.424Z,29.13
2023-02-18T19:35:48.150Z,30.20
2023-02-18T19:38:16.775Z,24.25
2023-02-18T19:40:44.222Z,25.38
2023-02-18T19:43:11.138Z,27.60
2023-02-18T19:45:46.070Z,26.10
2023-02-18T19:48:14.185Z,29.27
2023-02-18T19:50:42.088Z,29.15
2023-02-18T19:53:09.887Z,33.10
2023-02-18T19:55:36.781Z,32.90
2023-02-18T19:58:05.502Z,35.38
2023-02-18T20:00:32.254Z,34.30
2023-02-18T20:02:58.888Z,32.75
2023-02-18T20:05:25.629Z,35.92
2023-02-18T20:07:52.228Z,33.25
2023-02-18T20:10:22.537Z,33.85
2023-02-18T20:12:53.680Z,33.25
2023-02-18T20:15:21.262Z,29.27
2023-02-18T20:17:47.929Z,33.13
2023-02-18T20:20:14.631Z,34.22
2023-02-18T20:22:41.278Z,37.85
2023-02-18T20:25:08.018Z,38.05
2023-02-18T20:27:37.541Z,41.33
2023-02-18T20:30:07.488Z,39.40
2023-02-18T20:32:35.124Z,45.30
2023-02-18T20:35:01.831Z,38.60
2023-02-18T20:37:28.517Z,39.10
2023-02-18T20:39:55.118Z,40.05
2023-02-18T20:42:21.839Z,34.97
2023-02-18T20:44:49.332Z,26.17
2023-02-18T20:47:16.008Z,30.83
2023-02-18T20:49:42.851Z,31.50
2023-02-18T20:52:10.347Z,30.38
2023-02-18T20:54:36.973Z,27.13
2023-02-18T20:57:04.087Z,33.95
2023-02-18T20:59:33.202Z,30.77
2023-02-18T21:02:00.130Z,27.67
2023-02-18T21:04:26.928Z,31.05
2023-02-18T21:06:54.301Z,35.92
2023-02-18T21:09:21.530Z,41.75
2023-02-18T21:11:48.633Z,38.78
2023-02-18T21:14:15.404Z,39.25
2023-02-18T21:16:42.055Z,44.50
2023-02-18T21:19:12.406Z,42.47
2023-02-18T21:21:39.386Z,45.15
2023-02-18T21:24:06.177Z,34.20
2023-02-18T21:26:32.986Z,50.45
2023-02-18T21:29:01.693Z,45.80
2023-02-18T21:31:35.105Z,50.45
2023-02-18T21:34:02.674Z,39.00
2023-02-18T21:36:30.788Z,41.60
2023-02-18T21:38:59.014Z,39.60
2023-02-18T21:41:26.201Z,37.55
2023-02-18T21:43:53.113Z,42.28
2023-02-18T21:46:21.523Z,47.67
2023-02-18T21:49:05.648Z,42.58
2023-02-18T21:51:58.021Z,40.78
2023-02-18T21:54:44.686Z,38.75
2023-02-18T21:57:14.420Z,35.08
2023-02-18T21:59:41.706Z,40.63
2023-02-18T22:02:21.688Z,40.65
2023-02-18T22:04:49.202Z,42.45
2023-02-18T22:07:16.586Z,43.72
2023-02-18T22:09:43.339Z,43.45
2023-02-18T22:12:11.742Z,35.97
2023-02-18T22:14:39.280Z,39.38
2023-02-18T22:17:06.329Z,44.65
2023-02-18T22:19:32.963Z,36.97
2023-02-18T22:22:04.882Z,43.13
2023-02-18T22:24:32.117Z,37.40
2023-02-18T22:27:01.397Z,39.78
2023-02-18T22:29:29.360Z,40.75
2023-02-18T22:31:56.108Z,38.65
2023-02-18T22:34:23.265Z,33.80
2023-02-18T22:36:49.908Z,32.65
2023-02-18T22:39:16.896Z,34.33
2023-02-18T22:41:43.969Z,38.40
2023-02-18T22:44:15.326Z,30.45
2023-02-18T22:46:42.063Z,36.30
2023-02-18T22:49:11.602Z,28.15
2023-02-18T22:51:40.572Z,31.88
2023-02-18T22:54:12.165Z,29.63
2023-02-18T22:56:39.065Z,31.55
2023-02-18T22:59:06.125Z,33.97
2023-02-18T23:01:38.617Z,33.67
2023-02-18T23:04:11.007Z,41.47
2023-02-18T23:06:39.005Z,36.65
2023-02-18T23:09:07.266Z,36.42
2023-02-18T23:11:34.437Z,36.70
2023-02-18T23:14:19.549Z,37.38
2023-02-18T23:17:09.789Z,38.22
2023-02-18T23:19:37.212Z,34.72
2023-02-18T23:26:00.889Z,40.00
2023-02-18T23:28:28.612Z,36.42
2023-02-18T23:30:55.298Z,41.85
2023-02-18T23:33:22.070Z,34.15
2023-02-18T23:35:48.676Z,37.55
2023-02-18T23:38:15.332Z,36.90
2023-02-18T23:40:41.921Z,39.80
2023-02-18T23:43:08.554Z,36.90
2023-02-18T23:45:35.196Z,34.58
2023-02-18T23:48:01.925Z,32.75
2023-02-18T23:50:28.529Z,38.22
2023-02-18T23:52:55.230Z,27.42
2023-02-18T23:55:21.844Z,34.55
2023-02-18T23:57:48.702Z,33.72
